createdAt,value
2019-03-09T00:00:39.084Z,6.90
2019-03-09T00:03:07.065Z,6.87
2019-03-09T00:05:33.299Z,6.88
2019-03-09T00:08:00.607Z,6.87
2019-03-09T00:10:26.848Z,6.80
2019-03-09T00:12:53.117Z,6.81
2019-03-09T00:15:19.693Z,6.75
2019-03-09T00:17:45.943Z,6.74
2019-03-09T00:20:12.361Z,6.69
2019-03-09T00:22:38.547Z,6.76
2019-03-09T00:25:23.467Z,6.71
2019-03-09T00:27:51.923Z,6.67
2019-03-09T00:30:26.189Z,6.71
2019-03-09T00:32:52.308Z,6.84
2019-03-09T00:35:18.649Z,6.88
2019-03-09T00:37:44.952Z,6.91
2019-03-09T00:40:11.642Z,6.85
2019-03-09T00:42:38.043Z,6.87
2019-03-09T00:45:04.560Z,6.98
2019-03-09T00:47:30.963Z,6.84
2019-03-09T00:49:57.085Z,6.81
2019-03-09T00:52:23.243Z,6.95
2019-03-09T00:54:49.725Z,6.95
2019-03-09T00:57:15.947Z,6.93
2019-03-09T00:59:42.183Z,6.98
2019-03-09T01:02:08.406Z,6.95
2019-03-09T01:04:34.637Z,6.99
2019-03-09T01:07:00.849Z,6.95
2019-03-09T01:09:27.294Z,6.94
2019-03-09T01:11:53.635Z,6.99
2019-03-09T01:14:20.129Z,6.92
2019-03-09T01:16:46.468Z,6.90
2019-03-09T01:19:12.690Z,6.90
2019-03-09T01:21:38.861Z,6.90
2019-03-09T01:24:05.188Z,6.80
2019-03-09T01:26:31.503Z,6.87
2019-03-09T01:28:57.937Z,6.87
2019-03-09T01:31:24.167Z,6.84
2019-03-09T01:33:50.475Z,6.78
2019-03-09T01:36:16.813Z,6.80
2019-03-09T01:38:42.916Z,6.80
2019-03-09T01:41:09.228Z,6.75
2019-03-09T01:43:35.439Z,6.62
2019-03-09T01:46:01.876Z,6.64
2019-03-09T01:48:28.012Z,6.54
2019-03-09T01:50:54.206Z,6.53
2019-03-09T01:53:20.319Z,6.43
2019-03-09T01:55:46.466Z,6.37
2019-03-09T01:58:12.740Z,6.44
2019-03-09T02:00:39.097Z,6.40
2019-03-09T02:03:05.381Z,6.43
2019-03-09T02:05:34.907Z,6.48
2019-03-09T02:08:01.323Z,6.48
2019-03-09T02:10:27.745Z,6.26
2019-03-09T02:12:54.060Z,6.33
2019-03-09T02:15:20.419Z,6.22
2019-03-09T02:17:46.608Z,6.18
2019-03-09T02:20:14.329Z,6.24
2019-03-09T02:22:40.917Z,6.22
2019-03-09T02:25:08.193Z,6.20
2019-03-09T02:27:34.314Z,6.13
2019-03-09T02:30:00.838Z,6.13
2019-03-09T02:32:27.127Z,6.17
2019-03-09T02:34:53.471Z,6.18
2019-03-09T02:37:19.671Z,6.13
2019-03-09T02:39:50.721Z,6.13
2019-03-09T02:42:17.057Z,6.18
2019-03-09T02:44:43.238Z,6.12
2019-03-09T02:47:09.550Z,6.03
2019-03-09T02:49:35.705Z,6.12
2019-03-09T02:52:02.120Z,6.08
2019-03-09T02:54:28.359Z,6.05
2019-03-09T02:56:54.572Z,6.03
2019-03-09T02:59:20.801Z,5.96
2019-03-09T03:02:03.898Z,5.99
2019-03-09T03:04:30.121Z,5.92
2019-03-09T03:06:56.387Z,5.94
2019-03-09T03:09:22.614Z,5.88
2019-03-09T03:11:48.865Z,5.89
2019-03-09T03:14:15.063Z,5.85
2019-03-09T03:16:41.196Z,5.84
2019-03-09T03:19:08.471Z,5.87
2019-03-09T03:21:34.615Z,5.84
2019-03-09T03:24:00.839Z,5.87
2019-03-09T03:26:26.974Z,5.80
2019-03-09T03:28:53.098Z,5.80
2019-03-09T03:31:19.335Z,5.74
2019-03-09T03:33:45.576Z,5.70
2019-03-09T03:36:11.779Z,5.73
2019-03-09T03:38:37.931Z,5.72
2019-03-09T03:41:04.260Z,5.72
2019-03-09T03:43:30.515Z,5.76
2019-03-09T03:45:57.861Z,5.72
2019-03-09T03:48:24.114Z,5.75
2019-03-09T03:50:50.412Z,5.85
2019-03-09T03:53:16.838Z,5.78
2019-03-09T03:55:43.167Z,5.82
2019-03-09T03:58:10.020Z,5.93
2019-03-09T04:00:36.372Z,5.95
2019-03-09T04:03:02.808Z,5.97
2019-03-09T04:05:29.290Z,6.02
2019-03-09T04:07:56.110Z,6.02
2019-03-09T04:10:22.538Z,6.07
2019-03-09T04:12:49.200Z,6.13
2019-03-09T04:15:15.630Z,6.22
2019-03-09T04:17:41.850Z,6.23
2019-03-09T04:20:09.982Z,6.21
2019-03-09T04:22:36.201Z,6.23
2019-03-09T04:25:03.909Z,6.29
2019-03-09T04:27:29.996Z,6.33
2019-03-09T04:29:56.348Z,6.36
2019-03-09T04:32:22.648Z,6.43
2019-03-09T04:34:49.156Z,6.44
2019-03-09T04:37:15.390Z,6.44
2019-03-09T04:39:41.629Z,6.49
2019-03-09T04:42:07.742Z,6.51
2019-03-09T04:44:33.971Z,6.55
2019-03-09T04:47:00.062Z,6.60
2019-03-09T04:49:27.406Z,6.63
2019-03-09T04:51:53.815Z,6.71
2019-03-09T04:54:20.061Z,6.76
2019-03-09T04:56:46.358Z,6.80
2019-03-09T04:59:12.563Z,6.76
2019-03-09T05:01:40.699Z,6.83
2019-03-09T05:04:25.659Z,6.87
2019-03-09T05:06:52.051Z,6.89
2019-03-09T05:09:44.877Z,6.91
2019-03-09T05:12:10.995Z,6.98
2019-03-09T05:14:37.160Z,6.96
2019-03-09T05:17:04.609Z,7.06
2019-03-09T05:19:30.826Z,7.00
2019-03-09T05:21:56.965Z,6.97
2019-03-09T05:24:23.208Z,6.98
2019-03-09T05:26:49.485Z,7.01
2019-03-09T05:29:15.578Z,7.10
2019-03-09T05:31:41.886Z,7.12
2019-03-09T05:34:08.293Z,7.23
2019-03-09T05:36:34.480Z,7.39
2019-03-09T05:39:00.706Z,7.33
2019-03-09T05:41:27.013Z,7.30
2019-03-09T05:43:53.286Z,7.30
2019-03-09T05:46:19.542Z,7.32
2019-03-09T05:48:45.646Z,7.29
2019-03-09T05:51:11.890Z,7.29
2019-03-09T05:53:38.085Z,7.31
2019-03-09T05:56:04.404Z,7.29
2019-03-09T05:58:30.573Z,7.25
2019-03-09T06:00:56.841Z,7.22
2019-03-09T06:03:23.279Z,7.17
2019-03-09T06:05:49.975Z,7.14
2019-03-09T06:08:16.338Z,7.16
2019-03-09T06:10:42.656Z,7.15
2019-03-09T06:13:08.829Z,7.11
2019-03-09T06:15:35.078Z,7.07
2019-03-09T06:18:01.453Z,7.03
2019-03-09T06:20:27.682Z,7.05
2019-03-09T06:22:54.019Z,7.03
2019-03-09T06:25:20.248Z,6.89
2019-03-09T06:27:46.509Z,7.04
2019-03-09T06:30:12.950Z,7.02
2019-03-09T06:32:43.924Z,7.03
2019-03-09T06:35:16.784Z,7.11
2019-03-09T06:37:46.727Z,7.17
2019-03-09T06:40:13.056Z,7.18
2019-03-09T06:42:44.918Z,7.33
2019-03-09T06:45:11.817Z,7.41
2019-03-09T06:47:38.152Z,7.45
2019-03-09T06:50:08.127Z,7.55
2019-03-09T06:52:34.395Z,7.52
2019-03-09T06:55:00.762Z,7.49
2019-03-09T06:57:27.072Z,7.45
2019-03-09T06:59:54.411Z,7.52
2019-03-09T07:02:20.510Z,7.42
2019-03-09T07:04:46.868Z,7.38
2019-03-09T07:07:13.215Z,7.35
2019-03-09T07:09:39.564Z,7.36
2019-03-09T07:12:05.747Z,7.41
2019-03-09T07:14:53.966Z,7.40
2019-03-09T07:17:20.356Z,7.46
2019-03-09T07:19:46.684Z,7.40
2019-03-09T07:22:13.086Z,7.40
2019-03-09T07:24:39.447Z,7.43
2019-03-09T07:27:05.579Z,7.47
2019-03-09T07:29:31.897Z,7.50
2019-03-09T07:31:58.303Z,7.52
2019-03-09T07:34:25.744Z,7.56
2019-03-09T07:36:52.059Z,7.59
2019-03-09T07:39:18.304Z,7.66
2019-03-09T07:41:44.469Z,7.79
2019-03-09T07:44:10.762Z,7.88
2019-03-09T07:46:37.011Z,8.04
2019-03-09T07:49:03.342Z,8.07
2019-03-09T07:51:29.455Z,8.08
2019-03-09T07:53:55.558Z,8.12
2019-03-09T07:56:22.046Z,7.97
2019-03-09T07:58:48.374Z,8.00
2019-03-09T08:01:14.672Z,8.06
2019-03-09T08:03:40.890Z,8.22
2019-03-09T08:06:07.122Z,8.38
2019-03-09T08:08:33.246Z,8.52
2019-03-09T08:10:59.587Z,8.53
2019-03-09T08:13:26.044Z,8.44
2019-03-09T08:15:52.498Z,8.42
2019-03-09T08:18:18.791Z,8.36
2019-03-09T08:20:44.919Z,8.33
2019-03-09T08:23:11.075Z,8.31
2019-03-09T08:25:37.384Z,8.26
2019-03-09T08:28:03.890Z,8.26
2019-03-09T08:30:30.322Z,8.41
2019-03-09T08:32:56.782Z,8.40
2019-03-09T08:35:22.969Z,8.52
2019-03-09T08:37:50.125Z,8.63
2019-03-09T08:40:17.428Z,8.63
2019-03-09T08:42:43.903Z,8.62
2019-03-09T08:45:13.326Z,8.62
2019-03-09T08:47:39.669Z,8.61
2019-03-09T08:50:09.159Z,8.63
2019-03-09T08:52:35.279Z,8.69
2019-03-09T08:55:01.682Z,8.70
2019-03-09T08:57:29.018Z,8.73
2019-03-09T08:59:55.256Z,8.78
2019-03-09T09:02:21.496Z,8.80
2019-03-09T09:04:47.683Z,8.80
2019-03-09T09:07:13.818Z,8.84
2019-03-09T09:09:39.929Z,8.83
2019-03-09T09:12:06.296Z,8.86
2019-03-09T09:14:32.537Z,8.87
2019-03-09T09:16:58.850Z,8.95
2019-03-09T09:19:25.041Z,8.99
2019-03-09T09:21:51.411Z,8.97
2019-03-09T09:24:17.644Z,9.11
2019-03-09T09:26:43.826Z,9.17
2019-03-09T09:29:10.145Z,9.24
2019-03-09T09:31:36.376Z,9.34
2019-03-09T09:34:02.696Z,9.30
2019-03-09T09:36:29.100Z,9.34
2019-03-09T09:38:55.662Z,9.33
2019-03-09T09:41:22.088Z,9.43
2019-03-09T09:43:48.334Z,9.45
2019-03-09T09:46:14.645Z,9.48
2019-03-09T09:48:40.785Z,9.46
2019-03-09T09:51:07.011Z,9.58
2019-03-09T09:53:33.223Z,9.57
2019-03-09T09:55:59.728Z,9.51
2019-03-09T09:58:25.989Z,9.58
2019-03-09T10:00:52.207Z,9.62
2019-03-09T10:03:18.518Z,9.80
2019-03-09T10:05:44.643Z,9.85
2019-03-09T10:08:10.920Z,9.90
2019-03-09T10:10:37.155Z,9.86
2019-03-09T10:13:03.498Z,9.94
2019-03-09T10:15:31.743Z,9.87
2019-03-09T10:17:58.096Z,9.90
2019-03-09T10:20:24.504Z,9.90
2019-03-09T10:22:50.816Z,9.91
2019-03-09T10:25:17.259Z,9.90
2019-03-09T10:27:44.599Z,9.92
2019-03-09T10:30:21.913Z,9.93
2019-03-09T10:32:48.501Z,9.95
2019-03-09T10:35:14.647Z,9.97
2019-03-09T10:37:41.025Z,9.98
2019-03-09T10:40:09.768Z,9.98
2019-03-09T10:42:36.165Z,10.02
2019-03-09T10:45:04.709Z,9.99
2019-03-09T10:47:31.069Z,10.07
2019-03-09T10:49:57.244Z,10.09
2019-03-09T10:52:23.590Z,10.16
2019-03-09T10:54:49.680Z,10.10
2019-03-09T10:57:15.844Z,10.16
2019-03-09T10:59:43.048Z,10.19
2019-03-09T11:02:09.371Z,10.23
2019-03-09T11:04:35.855Z,10.25
2019-03-09T11:07:02.312Z,10.30
2019-03-09T11:09:28.545Z,10.33
2019-03-09T11:11:54.992Z,10.38
2019-03-09T11:14:21.360Z,10.44
2019-03-09T11:16:47.637Z,10.47
2019-03-09T11:19:14.019Z,10.47
2019-03-09T11:21:40.432Z,10.61
2019-03-09T11:24:06.742Z,10.50
2019-03-09T11:26:33.124Z,10.55
2019-03-09T11:28:59.572Z,10.64
2019-03-09T11:31:25.721Z,10.55
2019-03-09T11:33:51.924Z,10.53
2019-03-09T11:36:18.318Z,10.61
2019-03-09T11:38:44.424Z,10.59
2019-03-09T11:41:18.803Z,10.62
2019-03-09T11:43:38.879Z,10.51
2019-03-09T11:46:09.231Z,10.57
2019-03-09T11:48:35.578Z,10.57
2019-03-09T11:51:05.998Z,10.62
2019-03-09T11:53:32.232Z,10.78
2019-03-09T11:55:58.517Z,10.78
2019-03-09T11:58:24.797Z,10.85
2019-03-09T12:00:51.139Z,10.75
2019-03-09T12:03:18.250Z,10.87
2019-03-09T12:05:44.583Z,11.17
2019-03-09T12:08:13.428Z,11.32
2019-03-09T12:10:43.591Z,11.16
2019-03-09T12:13:10.439Z,10.92
2019-03-09T12:15:36.743Z,11.10
2019-03-09T12:18:14.158Z,11.29
2019-03-09T12:20:40.498Z,11.38
2019-03-09T12:23:13.659Z,11.87
2019-03-09T12:25:39.954Z,11.30
2019-03-09T12:28:06.332Z,11.49
2019-03-09T12:30:41.380Z,11.71
2019-03-09T12:33:07.676Z,12.02
2019-03-09T12:35:33.829Z,11.84
2019-03-09T12:38:00.182Z,11.64
2019-03-09T12:40:26.530Z,11.41
2019-03-09T12:42:52.900Z,11.18
2019-03-09T12:45:19.454Z,10.97
2019-03-09T12:47:45.875Z,10.94
2019-03-09T12:52:52.463Z,11.01
2019-03-09T12:55:18.787Z,10.90
2019-03-09T12:57:54.590Z,11.00
2019-03-09T13:00:29.920Z,10.96
2019-03-09T13:02:56.403Z,10.91
2019-03-09T13:05:31.406Z,10.94
2019-03-09T13:10:37.420Z,10.83
2019-03-09T13:13:06.590Z,10.86
2019-03-09T13:15:32.853Z,10.86
2019-03-09T13:17:59.169Z,10.87
2019-03-09T13:20:35.388Z,10.89
2019-03-09T13:23:06.531Z,10.95
2019-03-09T13:25:32.892Z,10.94
2019-03-09T13:30:47.161Z,10.93
2019-03-09T13:33:13.537Z,11.15
2019-03-09T13:35:40.038Z,11.06
2019-03-09T13:38:06.349Z,10.96
2019-03-09T13:40:38.783Z,10.89
2019-03-09T13:43:09.401Z,10.88
2019-03-09T13:45:35.836Z,10.83
2019-03-09T13:48:06.724Z,10.82
2019-03-09T13:50:33.066Z,10.78
2019-03-09T13:53:13.851Z,10.83
2019-03-09T13:55:41.300Z,10.90
2019-03-09T13:58:08.750Z,10.96
2019-03-09T14:00:40.316Z,11.00
2019-03-09T14:03:07.784Z,10.96
2019-03-09T14:05:34.242Z,10.90
2019-03-09T14:08:05.860Z,10.78
2019-03-09T14:10:32.217Z,10.75
2019-03-09T14:12:58.505Z,10.68
2019-03-09T14:15:25.717Z,10.65
2019-03-09T14:17:53.978Z,10.66
2019-03-09T14:20:20.219Z,10.68
2019-03-09T14:22:46.476Z,10.13
2019-03-09T14:25:15.597Z,9.27
2019-03-09T14:27:41.862Z,8.40
2019-03-09T14:30:13.639Z,7.84
2019-03-09T14:32:39.967Z,7.52
2019-03-09T14:35:06.330Z,7.31
2019-03-09T14:37:32.608Z,7.39
2019-03-09T14:39:58.877Z,7.56
2019-03-09T14:42:25.242Z,7.90
2019-03-09T14:44:51.680Z,8.04
2019-03-09T14:47:18.134Z,8.22
2019-03-09T14:49:45.518Z,8.37
2019-03-09T14:52:11.782Z,8.31
2019-03-09T14:54:37.963Z,8.31
2019-03-09T14:57:04.430Z,8.30
2019-03-09T14:59:30.677Z,8.45
2019-03-09T15:01:56.941Z,8.37
2019-03-09T15:04:23.387Z,8.26
2019-03-09T15:06:49.670Z,8.35
2019-03-09T15:09:16.022Z,8.34
2019-03-09T15:11:42.266Z,8.45
2019-03-09T15:14:08.600Z,8.54
2019-03-09T15:16:34.810Z,8.55
2019-03-09T15:19:01.164Z,8.58
2019-03-09T15:21:27.789Z,8.60
2019-03-09T15:23:54.243Z,8.64
2019-03-09T15:26:20.568Z,8.65
2019-03-09T15:28:46.934Z,8.79
2019-03-09T15:31:13.282Z,8.88
2019-03-09T15:33:39.795Z,8.93
2019-03-09T15:36:06.207Z,8.89
2019-03-09T15:38:32.684Z,8.97
2019-03-09T15:40:59.184Z,8.89
2019-03-09T15:43:25.406Z,8.71
2019-03-09T15:45:51.704Z,8.45
2019-03-09T15:48:18.075Z,8.24
2019-03-09T15:50:44.225Z,7.92
2019-03-09T15:53:10.371Z,7.50
2019-03-09T15:55:36.726Z,7.09
2019-03-09T15:58:03.275Z,7.00
2019-03-09T16:00:29.758Z,6.89
2019-03-09T16:02:56.322Z,6.57
2019-03-09T16:05:22.655Z,6.33
2019-03-09T16:07:48.976Z,6.25
2019-03-09T16:10:17.698Z,6.10
2019-03-09T16:12:45.162Z,6.02
2019-03-09T16:15:15.337Z,5.88
2019-03-09T16:17:41.700Z,5.75
2019-03-09T16:20:10.897Z,5.81
2019-03-09T16:22:37.246Z,5.78
2019-03-09T16:25:04.363Z,5.84
2019-03-09T16:27:30.703Z,5.83
2019-03-09T16:29:56.995Z,5.78
2019-03-09T16:32:23.342Z,5.72
2019-03-09T16:34:49.729Z,5.63
2019-03-09T16:37:15.956Z,5.54
2019-03-09T16:39:42.330Z,5.58
2019-03-09T16:42:08.745Z,5.40
2019-03-09T16:44:34.989Z,5.39
2019-03-09T16:47:01.381Z,5.39
2019-03-09T16:49:27.625Z,5.40
2019-03-09T16:51:53.955Z,5.53
2019-03-09T16:54:20.115Z,5.71
2019-03-09T16:56:46.404Z,5.87
2019-03-09T16:59:12.871Z,5.83
2019-03-09T17:01:39.207Z,5.96
2019-03-09T17:04:05.527Z,6.20
2019-03-09T17:06:31.635Z,6.24
2019-03-09T17:08:58.020Z,6.31
2019-03-09T17:11:24.208Z,6.46
2019-03-09T17:13:50.691Z,6.36
2019-03-09T17:16:16.924Z,6.52
2019-03-09T17:18:43.162Z,6.54
2019-03-09T17:21:09.328Z,6.60
2019-03-09T17:23:35.615Z,6.69
2019-03-09T17:26:02.122Z,6.82
2019-03-09T17:28:28.498Z,6.86
2019-03-09T17:30:54.630Z,6.82
2019-03-09T17:33:20.878Z,6.75
2019-03-09T17:35:47.290Z,6.75
2019-03-09T17:38:13.510Z,6.76
2019-03-09T17:40:39.896Z,6.81
2019-03-09T17:43:06.227Z,6.81
2019-03-09T17:45:32.443Z,6.81
2019-03-09T17:47:58.556Z,6.81
2019-03-09T17:50:24.895Z,6.83
2019-03-09T17:52:51.366Z,6.93
2019-03-09T17:55:18.832Z,6.85
2019-03-09T17:57:45.225Z,6.87
2019-03-09T18:00:30.223Z,6.88
2019-03-09T18:02:56.798Z,6.93
2019-03-09T18:05:23.456Z,6.91
2019-03-09T18:07:50.022Z,6.95
2019-03-09T18:10:35.352Z,6.90
2019-03-09T18:13:02.087Z,6.81
2019-03-09T18:15:28.566Z,6.86
2019-03-09T18:17:55.027Z,6.88
2019-03-09T18:20:21.627Z,6.86
2019-03-09T18:22:48.313Z,6.82
2019-03-09T18:25:14.559Z,6.75
2019-03-09T18:27:40.941Z,6.83
2019-03-09T18:30:09.275Z,6.80
2019-03-09T18:32:35.541Z,6.73
2019-03-09T18:35:02.273Z,6.65
2019-03-09T18:37:29.882Z,6.58
2019-03-09T18:39:56.269Z,6.56
2019-03-09T18:42:22.447Z,6.55
2019-03-09T18:44:48.694Z,6.51
2019-03-09T18:47:15.175Z,6.40
2019-03-09T18:49:41.466Z,6.38
2019-03-09T18:52:07.834Z,6.31
2019-03-09T18:54:34.072Z,6.30
2019-03-09T18:57:01.746Z,6.27
2019-03-09T18:59:28.055Z,6.27
2019-03-09T19:01:54.412Z,6.20
2019-03-09T19:04:20.727Z,6.20
2019-03-09T19:06:47.394Z,6.19
2019-03-09T19:09:14.132Z,6.17
2019-03-09T19:11:40.699Z,6.05
2019-03-09T19:14:07.180Z,6.07
2019-03-09T19:16:33.564Z,6.00
2019-03-09T19:18:59.677Z,5.98
2019-03-09T19:21:26.294Z,5.96
2019-03-09T19:23:52.781Z,5.89
2019-03-09T19:26:19.142Z,5.83
2019-03-09T19:28:45.726Z,5.75
2019-03-09T19:31:12.287Z,5.87
2019-03-09T19:33:38.738Z,5.84
2019-03-09T19:36:05.160Z,5.87
2019-03-09T19:38:31.582Z,5.93
2019-03-09T19:40:58.145Z,5.86
2019-03-09T19:43:24.420Z,5.93
2019-03-09T19:45:50.927Z,5.83
2019-03-09T19:48:17.360Z,5.60
2019-03-09T19:50:43.772Z,5.61
2019-03-09T19:53:10.098Z,5.61
2019-03-09T19:55:36.502Z,5.64
2019-03-09T19:58:02.871Z,5.60
2019-03-09T20:00:29.240Z,5.45
2019-03-09T20:02:55.827Z,5.29
2019-03-09T20:05:22.436Z,5.30
2019-03-09T20:07:48.782Z,5.16
2019-03-09T20:10:18.809Z,5.20
2019-03-09T20:12:45.183Z,5.31
2019-03-09T20:15:16.173Z,5.35
2019-03-09T20:17:42.482Z,5.35
2019-03-09T20:20:16.841Z,5.34
2019-03-09T20:22:43.289Z,5.39
2019-03-09T20:25:10.232Z,5.40
2019-03-09T20:27:36.677Z,5.38
2019-03-09T20:30:06.255Z,5.34
2019-03-09T20:32:32.587Z,5.28
2019-03-09T20:34:58.960Z,5.23
2019-03-09T20:37:25.417Z,5.25
2019-03-09T20:39:51.962Z,5.35
2019-03-09T20:42:18.324Z,5.29
2019-03-09T20:44:44.837Z,5.25
2019-03-09T20:47:11.174Z,5.25
2019-03-09T20:49:37.467Z,5.31
2019-03-09T20:52:03.935Z,5.29
2019-03-09T20:54:30.613Z,5.29
2019-03-09T20:56:56.847Z,5.37
2019-03-09T20:59:24.391Z,5.23
2019-03-09T21:01:50.724Z,5.26
2019-03-09T21:04:18.202Z,5.25
2019-03-09T21:06:44.375Z,5.33
2019-03-09T21:09:10.744Z,5.23
2019-03-09T21:11:38.557Z,5.28
2019-03-09T21:14:04.901Z,5.33
2019-03-09T21:16:31.278Z,5.26
2019-03-09T21:18:57.731Z,5.37
2019-03-09T21:21:24.268Z,5.35
2019-03-09T21:23:50.793Z,5.40
2019-03-09T21:26:17.230Z,5.51
2019-03-09T21:28:43.709Z,5.54
2019-03-09T21:31:09.982Z,5.52
2019-03-09T21:33:36.463Z,5.56
2019-03-09T21:36:02.833Z,5.65
2019-03-09T21:38:29.267Z,5.66
2019-03-09T21:40:55.761Z,5.72
2019-03-09T21:43:23.099Z,5.79
2019-03-09T21:45:49.674Z,5.92
2019-03-09T21:48:15.826Z,5.94
2019-03-09T21:50:42.332Z,5.93
2019-03-09T21:53:08.488Z,5.95
2019-03-09T21:55:34.778Z,6.05
2019-03-09T21:58:01.238Z,6.19
2019-03-09T22:00:27.450Z,6.05
2019-03-09T22:02:54.107Z,5.97
2019-03-09T22:05:20.537Z,5.87
2019-03-09T22:07:47.001Z,5.79
2019-03-09T22:10:13.493Z,5.72
2019-03-09T22:12:39.950Z,5.69
2019-03-09T22:15:11.681Z,5.80
2019-03-09T22:17:38.035Z,5.81
2019-03-09T22:20:06.730Z,5.84
2019-03-09T22:22:33.085Z,5.83
2019-03-09T22:24:59.221Z,5.81
2019-03-09T22:27:25.528Z,5.80
2019-03-09T22:29:51.719Z,5.82
2019-03-09T22:32:19.595Z,5.90
2019-03-09T22:34:45.874Z,6.01
2019-03-09T22:37:12.381Z,6.08
2019-03-09T22:39:38.744Z,6.10
2019-03-09T22:42:04.960Z,6.10
2019-03-09T22:44:31.191Z,6.11
2019-03-09T22:46:57.534Z,6.10
2019-03-09T22:49:23.731Z,6.22
2019-03-09T22:51:50.137Z,6.17
2019-03-09T22:54:16.403Z,6.20
2019-03-09T22:56:43.327Z,6.28
2019-03-09T22:59:09.512Z,6.20
2019-03-09T23:01:35.938Z,6.25
2019-03-09T23:04:02.442Z,6.30
2019-03-09T23:06:28.835Z,6.33
2019-03-09T23:08:55.083Z,6.41
2019-03-09T23:11:21.419Z,6.43
2019-03-09T23:13:47.687Z,6.40
2019-03-09T23:16:14.028Z,6.31
2019-03-09T23:18:40.235Z,6.39
2019-03-09T23:21:06.743Z,6.43
2019-03-09T23:23:32.937Z,6.39
2019-03-09T23:25:59.190Z,6.28
2019-03-09T23:28:25.412Z,6.23
2019-03-09T23:30:51.680Z,6.28
2019-03-09T23:33:17.984Z,6.30
2019-03-09T23:35:44.165Z,6.31
2019-03-09T23:38:12.746Z,6.28
2019-03-09T23:40:40.242Z,6.37
2019-03-09T23:43:06.599Z,6.39
2019-03-09T23:45:32.963Z,6.38
2019-03-09T23:47:59.257Z,6.40
2019-03-09T23:50:25.594Z,6.37
2019-03-09T23:52:52.225Z,6.39
2019-03-09T23:55:22.486Z,6.47
2019-03-09T23:57:47.264Z,6.44
